KPMD

Palmdale Usaf Plant 42 Airport

Palmdale, California, USA
KPMD 210538Z 2106/2206 29012KT P6SM SCT150 FM210700 21007KT P6SM SKC FM211800 25012KT P6SM SKC FM212200 25018G28KT P6SM FEW150 FM220200 25018KT P6SM SKC FM220500 25012KT P6SM SKC
Issued Valid From Valid To
Jul-21 @ 05:38 UTC
(4 hours ago)
Jul-21 @ 06:00 UTC
(4 hours ago)
Jul-22 @ 06:00 UTC
(in 20 hours)
Expired Click to View Jul-21 @ 06:00 to Jul-21 @ 07:00
KPMD 210538Z 2106/2206 29012KT P6SM SCT150
Wind Visibility Clouds
290° at 12 knots Greater than 6 miles
  • Scattered at 15,000' AGL
From Jul-21 @ 07:00 to Jul-21 @ 18:00
FM210700 21007KT P6SM SKC
Wind Visibility Clouds
210° at 7 knots Greater than 6 miles
  • Clear skies
From Jul-21 @ 18:00 to Jul-21 @ 22:00
FM211800 25012KT P6SM SKC
Wind Visibility Clouds
250° at 12 knots Greater than 6 miles
  • Clear skies
From Jul-21 @ 22:00 to Jul-22 @ 02:00
FM212200 25018G28KT P6SM FEW150
Wind Visibility Clouds
250° at 18 knots
 Gusting to 28 knots
Greater than 6 miles
  • Few at 15,000' AGL
From Jul-22 @ 02:00 to Jul-22 @ 05:00
FM220200 25018KT P6SM SKC
Wind Visibility Clouds
250° at 18 knots Greater than 6 miles
  • Clear skies
From Jul-22 @ 05:00 to Jul-22 @ 06:00
FM220500 25012KT P6SM SKC
Wind Visibility Clouds
250° at 12 knots Greater than 6 miles
  • Clear skies
KPMD 210538Z 2106/2206 29012KT P6SM SCT150 FM210700 21007KT P6SM SKC FM211800 25012KT P6SM SKC FM212200 25018G28KT P6SM FEW150 FM220200 25018KT P6SM SKC FM220500 25012KT P6SM SKC
Issued Jul-21 @ 05:38 UTC
(4 hours ago)
Valid From Jul-21 @ 06:00 UTC
(4 hours ago)
Valid To Jul-22 @ 06:00 UTC
(in 20 hours)
Jul-21 @ 06:00 - Jul-21 @ 07:00
Wind Visibility
290° at 12 knots Greater than 6 miles
Clouds
  • Scattered at 15,000' AGL
From Jul-21 @ 07:00 - Jul-21 @ 18:00
Wind Visibility
210° at 7 knots Greater than 6 miles
Clouds
  • Clear skies
From Jul-21 @ 18:00 - Jul-21 @ 22:00
Wind Visibility
250° at 12 knots Greater than 6 miles
Clouds
  • Clear skies
From Jul-21 @ 22:00 - Jul-22 @ 02:00
Wind Visibility
250° at 18 knots
 Gusting to 28 knots
Greater than 6 miles
Clouds
  • Few at 15,000' AGL
From Jul-22 @ 02:00 - Jul-22 @ 05:00
Wind Visibility
250° at 18 knots Greater than 6 miles
Clouds
  • Clear skies
From Jul-22 @ 05:00 - Jul-22 @ 06:00
Wind Visibility
250° at 12 knots Greater than 6 miles
Clouds
  • Clear skies